sensor_id;sensor_type;location;lat;lon;timestamp;P1;durP1;ratioP1;P2;durP2;ratioP2
49548;SDS011;35450;44.518;7.466;2023-06-10T00:01:55;32.15;;;21.00;;
49548;SDS011;35450;44.518;7.466;2023-06-10T00:05:03;30.73;;;22.17;;
49548;SDS011;35450;44.518;7.466;2023-06-10T00:08:07;32.83;;;24.95;;
49548;SDS011;35450;44.518;7.466;2023-06-10T00:11:11;29.73;;;22.65;;
49548;SDS011;35450;44.518;7.466;2023-06-10T00:14:15;38.10;;;22.30;;
49548;SDS011;35450;44.518;7.466;2023-06-10T00:17:19;37.50;;;22.25;;
49548;SDS011;35450;44.518;7.466;2023-06-10T00:20:23;30.05;;;23.52;;
49548;SDS011;35450;44.518;7.466;2023-06-10T00:23:28;33.60;;;24.58;;
49548;SDS011;35450;44.518;7.466;2023-06-10T00:26:33;28.05;;;20.35;;
49548;SDS011;35450;44.518;7.466;2023-06-10T00:29:37;29.50;;;19.95;;
49548;SDS011;35450;44.518;7.466;2023-06-10T00:32:42;24.40;;;19.88;;
49548;SDS011;35450;44.518;7.466;2023-06-10T00:35:46;25.67;;;19.52;;
49548;SDS011;35450;44.518;7.466;2023-06-10T00:38:50;26.02;;;20.65;;
49548;SDS011;35450;44.518;7.466;2023-06-10T00:41:54;29.20;;;23.33;;
49548;SDS011;35450;44.518;7.466;2023-06-10T00:44:58;28.05;;;21.40;;
49548;SDS011;35450;44.518;7.466;2023-06-10T00:48:02;30.20;;;19.50;;
49548;SDS011;35450;44.518;7.466;2023-06-10T00:51:07;29.00;;;19.58;;
49548;SDS011;35450;44.518;7.466;2023-06-10T00:54:15;24.98;;;18.58;;
49548;SDS011;35450;44.518;7.466;2023-06-10T00:57:20;25.27;;;17.38;;
49548;SDS011;35450;44.518;7.466;2023-06-10T01:00:25;26.15;;;17.77;;
49548;SDS011;35450;44.518;7.466;2023-06-10T01:03:29;30.90;;;20.17;;
49548;SDS011;35450;44.518;7.466;2023-06-10T01:13:19;19.65;;;17.20;;
49548;SDS011;35450;44.518;7.466;2023-06-10T01:16:28;21.60;;;16.67;;
49548;SDS011;35450;44.518;7.466;2023-06-10T01:19:32;24.73;;;18.67;;
49548;SDS011;35450;44.518;7.466;2023-06-10T01:22:37;28.90;;;20.25;;
49548;SDS011;35450;44.518;7.466;2023-06-10T01:26:14;24.92;;;18.98;;
49548;SDS011;35450;44.518;7.466;2023-06-10T01:29:21;22.33;;;18.80;;
49548;SDS011;35450;44.518;7.466;2023-06-10T01:32:43;22.98;;;17.33;;
49548;SDS011;35450;44.518;7.466;2023-06-10T01:35:52;25.23;;;18.35;;
49548;SDS011;35450;44.518;7.466;2023-06-10T01:38:56;19.02;;;15.75;;
49548;SDS011;35450;44.518;7.466;2023-06-10T01:42:04;22.35;;;16.05;;
49548;SDS011;35450;44.518;7.466;2023-06-10T01:45:09;18.55;;;13.57;;
49548;SDS011;35450;44.518;7.466;2023-06-10T01:48:13;16.95;;;13.63;;
49548;SDS011;35450;44.518;7.466;2023-06-10T01:51:17;15.75;;;12.70;;
49548;SDS011;35450;44.518;7.466;2023-06-10T01:54:21;15.73;;;14.02;;
49548;SDS011;35450;44.518;7.466;2023-06-10T01:57:25;21.98;;;15.07;;
49548;SDS011;35450;44.518;7.466;2023-06-10T02:00:30;22.65;;;15.35;;
49548;SDS011;35450;44.518;7.466;2023-06-10T02:03:34;24.83;;;16.70;;
49548;SDS011;35450;44.518;7.466;2023-06-10T02:06:39;22.05;;;15.27;;
49548;SDS011;35450;44.518;7.466;2023-06-10T02:09:43;17.88;;;13.07;;
49548;SDS011;35450;44.518;7.466;2023-06-10T02:12:47;16.98;;;12.52;;
49548;SDS011;35450;44.518;7.466;2023-06-10T02:15:51;18.27;;;12.50;;
49548;SDS011;35450;44.518;7.466;2023-06-10T02:18:57;23.33;;;14.45;;
49548;SDS011;35450;44.518;7.466;2023-06-10T02:22:02;24.98;;;15.23;;
49548;SDS011;35450;44.518;7.466;2023-06-10T02:25:06;21.90;;;16.25;;
49548;SDS011;35450;44.518;7.466;2023-06-10T02:28:10;27.17;;;17.42;;
49548;SDS011;35450;44.518;7.466;2023-06-10T02:31:14;33.58;;;17.98;;
49548;SDS011;35450;44.518;7.466;2023-06-10T02:34:21;25.38;;;19.98;;
49548;SDS011;35450;44.518;7.466;2023-06-10T02:37:25;25.80;;;18.75;;
49548;SDS011;35450;44.518;7.466;2023-06-10T02:40:31;24.15;;;18.23;;
49548;SDS011;35450;44.518;7.466;2023-06-10T02:43:35;18.90;;;15.50;;
49548;SDS011;35450;44.518;7.466;2023-06-10T02:46:39;25.25;;;14.95;;
49548;SDS011;35450;44.518;7.466;2023-06-10T02:49:43;24.30;;;16.65;;
49548;SDS011;35450;44.518;7.466;2023-06-10T02:52:48;27.08;;;17.85;;
49548;SDS011;35450;44.518;7.466;2023-06-10T02:55:52;28.60;;;19.30;;
49548;SDS011;35450;44.518;7.466;2023-06-10T02:58:57;28.30;;;21.42;;
49548;SDS011;35450;44.518;7.466;2023-06-10T03:02:03;24.13;;;19.40;;
49548;SDS011;35450;44.518;7.466;2023-06-10T03:05:14;28.30;;;19.57;;
49548;SDS011;35450;44.518;7.466;2023-06-10T03:08:23;21.77;;;17.23;;
49548;SDS011;35450;44.518;7.466;2023-06-10T03:11:29;19.17;;;16.05;;
49548;SDS011;35450;44.518;7.466;2023-06-10T03:14:34;23.42;;;16.55;;
49548;SDS011;35450;44.518;7.466;2023-06-10T03:17:39;19.73;;;17.45;;
49548;SDS011;35450;44.518;7.466;2023-06-10T03:20:43;20.17;;;16.38;;
49548;SDS011;35450;44.518;7.466;2023-06-10T03:23:48;20.58;;;15.95;;
49548;SDS011;35450;44.518;7.466;2023-06-10T03:26:53;18.30;;;16.25;;
49548;SDS011;35450;44.518;7.466;2023-06-10T03:29:59;18.52;;;16.05;;
49548;SDS011;35450;44.518;7.466;2023-06-10T03:33:04;20.92;;;16.35;;
49548;SDS011;35450;44.518;7.466;2023-06-10T03:36:08;19.67;;;15.30;;
49548;SDS011;35450;44.518;7.466;2023-06-10T03:39:14;20.10;;;15.23;;
49548;SDS011;35450;44.518;7.466;2023-06-10T03:42:18;17.77;;;14.93;;
49548;SDS011;35450;44.518;7.466;2023-06-10T03:45:23;22.63;;;14.90;;
49548;SDS011;35450;44.518;7.466;2023-06-10T03:48:27;22.92;;;15.43;;
49548;SDS011;35450;44.518;7.466;2023-06-10T03:51:33;18.83;;;15.60;;
49548;SDS011;35450;44.518;7.466;2023-06-10T03:54:36;20.50;;;14.80;;
49548;SDS011;35450;44.518;7.466;2023-06-10T03:57:40;23.25;;;15.38;;
49548;SDS011;35450;44.518;7.466;2023-06-10T04:00:45;20.33;;;14.43;;
49548;SDS011;35450;44.518;7.466;2023-06-10T04:03:49;19.20;;;13.90;;
49548;SDS011;35450;44.518;7.466;2023-06-10T04:06:54;27.92;;;15.52;;
49548;SDS011;35450;44.518;7.466;2023-06-10T04:10:00;18.30;;;14.13;;
49548;SDS011;35450;44.518;7.466;2023-06-10T04:13:04;16.05;;;13.55;;
49548;SDS011;35450;44.518;7.466;2023-06-10T04:16:15;16.37;;;13.83;;
49548;SDS011;35450;44.518;7.466;2023-06-10T04:19:19;18.35;;;15.30;;
49548;SDS011;35450;44.518;7.466;2023-06-10T04:22:24;20.90;;;15.38;;
49548;SDS011;35450;44.518;7.466;2023-06-10T04:25:29;19.15;;;15.40;;
49548;SDS011;35450;44.518;7.466;2023-06-10T04:28:33;21.13;;;15.90;;
49548;SDS011;35450;44.518;7.466;2023-06-10T04:31:39;23.00;;;17.63;;
49548;SDS011;35450;44.518;7.466;2023-06-10T04:34:45;22.75;;;17.05;;
49548;SDS011;35450;44.518;7.466;2023-06-10T04:37:49;21.70;;;17.08;;
49548;SDS011;35450;44.518;7.466;2023-06-10T04:40:53;19.10;;;15.65;;
49548;SDS011;35450;44.518;7.466;2023-06-10T04:43:59;23.38;;;15.95;;
49548;SDS011;35450;44.518;7.466;2023-06-10T04:47:04;23.27;;;16.55;;
49548;SDS011;35450;44.518;7.466;2023-06-10T04:50:08;23.40;;;17.15;;
49548;SDS011;35450;44.518;7.466;2023-06-10T04:53:12;21.27;;;16.83;;
49548;SDS011;35450;44.518;7.466;2023-06-10T04:56:19;25.02;;;16.98;;
49548;SDS011;35450;44.518;7.466;2023-06-10T04:59:23;19.80;;;17.38;;
49548;SDS011;35450;44.518;7.466;2023-06-10T05:02:27;23.40;;;17.38;;
49548;SDS011;35450;44.518;7.466;2023-06-10T05:05:31;23.58;;;16.90;;
49548;SDS011;35450;44.518;7.466;2023-06-10T05:08:35;24.88;;;16.20;;
49548;SDS011;35450;44.518;7.466;2023-06-10T05:11:39;22.50;;;15.15;;
49548;SDS011;35450;44.518;7.466;2023-06-10T05:14:43;18.20;;;15.55;;
49548;SDS011;35450;44.518;7.466;2023-06-10T05:17:48;20.55;;;15.05;;
49548;SDS011;35450;44.518;7.466;2023-06-10T05:20:52;23.65;;;16.00;;
49548;SDS011;35450;44.518;7.466;2023-06-10T05:23:58;17.80;;;14.95;;
49548;SDS011;35450;44.518;7.466;2023-06-10T05:27:02;27.58;;;16.35;;
49548;SDS011;35450;44.518;7.466;2023-06-10T05:30:07;23.92;;;15.10;;
49548;SDS011;35450;44.518;7.466;2023-06-10T05:33:11;21.90;;;16.80;;
49548;SDS011;35450;44.518;7.466;2023-06-10T05:36:15;19.55;;;16.33;;
49548;SDS011;35450;44.518;7.466;2023-06-10T05:39:19;19.63;;;15.90;;
49548;SDS011;35450;44.518;7.466;2023-06-10T05:42:23;20.15;;;16.45;;
49548;SDS011;35450;44.518;7.466;2023-06-10T05:45:27;26.60;;;16.95;;
49548;SDS011;35450;44.518;7.466;2023-06-10T05:48:31;22.33;;;18.23;;
49548;SDS011;35450;44.518;7.466;2023-06-10T05:51:35;26.08;;;18.08;;
49548;SDS011;35450;44.518;7.466;2023-06-10T05:54:40;19.35;;;17.05;;
49548;SDS011;35450;44.518;7.466;2023-06-10T05:57:44;18.67;;;15.70;;
49548;SDS011;35450;44.518;7.466;2023-06-10T06:00:47;19.52;;;15.25;;
49548;SDS011;35450;44.518;7.466;2023-06-10T06:03:51;24.83;;;15.73;;
49548;SDS011;35450;44.518;7.466;2023-06-10T06:06:55;19.63;;;15.25;;
49548;SDS011;35450;44.518;7.466;2023-06-10T06:09:59;16.95;;;14.75;;
49548;SDS011;35450;44.518;7.466;2023-06-10T06:13:03;20.33;;;14.68;;
49548;SDS011;35450;44.518;7.466;2023-06-10T06:16:07;18.83;;;13.00;;
49548;SDS011;35450;44.518;7.466;2023-06-10T06:19:11;17.90;;;13.18;;
49548;SDS011;35450;44.518;7.466;2023-06-10T06:22:15;15.20;;;11.02;;
49548;SDS011;35450;44.518;7.466;2023-06-10T06:25:23;15.40;;;11.25;;
49548;SDS011;35450;44.518;7.466;2023-06-10T06:28:27;10.90;;;9.77;;
49548;SDS011;35450;44.518;7.466;2023-06-10T06:31:32;11.93;;;10.68;;
49548;SDS011;35450;44.518;7.466;2023-06-10T06:34:36;17.25;;;13.60;;
49548;SDS011;35450;44.518;7.466;2023-06-10T06:37:40;16.38;;;13.55;;
49548;SDS011;35450;44.518;7.466;2023-06-10T06:40:54;24.10;;;14.70;;
49548;SDS011;35450;44.518;7.466;2023-06-10T06:43:58;17.30;;;14.40;;
49548;SDS011;35450;44.518;7.466;2023-06-10T06:47:07;15.52;;;13.50;;
49548;SDS011;35450;44.518;7.466;2023-06-10T06:50:11;19.50;;;13.73;;
49548;SDS011;35450;44.518;7.466;2023-06-10T06:53:15;15.23;;;12.52;;
49548;SDS011;35450;44.518;7.466;2023-06-10T06:56:19;14.00;;;10.38;;
49548;SDS011;35450;44.518;7.466;2023-06-10T06:59:24;14.38;;;11.93;;
49548;SDS011;35450;44.518;7.466;2023-06-10T07:02:28;14.55;;;12.50;;
49548;SDS011;35450;44.518;7.466;2023-06-10T07:05:32;16.58;;;12.90;;
49548;SDS011;35450;44.518;7.466;2023-06-10T07:08:36;16.48;;;12.95;;
49548;SDS011;35450;44.518;7.466;2023-06-10T07:11:40;14.68;;;12.40;;
49548;SDS011;35450;44.518;7.466;2023-06-10T07:14:44;17.38;;;13.30;;
49548;SDS011;35450;44.518;7.466;2023-06-10T07:17:48;15.23;;;12.02;;
49548;SDS011;35450;44.518;7.466;2023-06-10T07:20:52;15.25;;;12.52;;
49548;SDS011;35450;44.518;7.466;2023-06-10T07:23:56;16.90;;;12.15;;
49548;SDS011;35450;44.518;7.466;2023-06-10T07:27:00;17.10;;;11.90;;
49548;SDS011;35450;44.518;7.466;2023-06-10T07:30:05;18.55;;;11.70;;
49548;SDS011;35450;44.518;7.466;2023-06-10T07:33:11;14.23;;;12.73;;
49548;SDS011;35450;44.518;7.466;2023-06-10T07:36:15;16.15;;;11.77;;
49548;SDS011;35450;44.518;7.466;2023-06-10T07:39:19;13.27;;;11.80;;
49548;SDS011;35450;44.518;7.466;2023-06-10T07:42:23;14.35;;;11.10;;
49548;SDS011;35450;44.518;7.466;2023-06-10T07:45:27;14.50;;;11.05;;
49548;SDS011;35450;44.518;7.466;2023-06-10T07:48:31;14.27;;;10.82;;
49548;SDS011;35450;44.518;7.466;2023-06-10T07:51:35;16.02;;;10.85;;
49548;SDS011;35450;44.518;7.466;2023-06-10T07:54:39;15.15;;;11.18;;
49548;SDS011;35450;44.518;7.466;2023-06-10T07:57:43;14.93;;;13.02;;
49548;SDS011;35450;44.518;7.466;2023-06-10T08:00:47;14.50;;;11.05;;
49548;SDS011;35450;44.518;7.466;2023-06-10T08:03:52;14.45;;;12.07;;
49548;SDS011;35450;44.518;7.466;2023-06-10T08:06:56;11.80;;;10.48;;
49548;SDS011;35450;44.518;7.466;2023-06-10T08:10:00;16.60;;;12.80;;
49548;SDS011;35450;44.518;7.466;2023-06-10T08:13:05;16.40;;;13.13;;
49548;SDS011;35450;44.518;7.466;2023-06-10T08:16:09;13.32;;;11.05;;
49548;SDS011;35450;44.518;7.466;2023-06-10T08:19:13;17.65;;;11.73;;
49548;SDS011;35450;44.518;7.466;2023-06-10T08:22:17;12.93;;;11.45;;
49548;SDS011;35450;44.518;7.466;2023-06-10T08:25:21;10.25;;;8.95;;
49548;SDS011;35450;44.518;7.466;2023-06-10T08:28:25;13.15;;;9.77;;
49548;SDS011;35450;44.518;7.466;2023-06-10T08:31:30;10.75;;;9.52;;
49548;SDS011;35450;44.518;7.466;2023-06-10T08:34:34;12.95;;;7.93;;
49548;SDS011;35450;44.518;7.466;2023-06-10T08:37:40;8.25;;;7.03;;
49548;SDS011;35450;44.518;7.466;2023-06-10T08:40:44;11.02;;;8.68;;
49548;SDS011;35450;44.518;7.466;2023-06-10T08:44:02;9.20;;;8.20;;
49548;SDS011;35450;44.518;7.466;2023-06-10T08:47:15;10.05;;;7.30;;
49548;SDS011;35450;44.518;7.466;2023-06-10T08:50:21;11.57;;;9.65;;
49548;SDS011;35450;44.518;7.466;2023-06-10T08:53:25;14.18;;;11.40;;
49548;SDS011;35450;44.518;7.466;2023-06-10T08:56:31;12.68;;;10.52;;
49548;SDS011;35450;44.518;7.466;2023-06-10T08:59:42;12.60;;;10.50;;
49548;SDS011;35450;44.518;7.466;2023-06-10T09:02:46;12.50;;;11.18;;
49548;SDS011;35450;44.518;7.466;2023-06-10T09:05:50;17.15;;;11.50;;
49548;SDS011;35450;44.518;7.466;2023-06-10T09:08:54;16.48;;;11.43;;
49548;SDS011;35450;44.518;7.466;2023-06-10T09:11:58;11.07;;;9.90;;
49548;SDS011;35450;44.518;7.466;2023-06-10T09:15:03;14.95;;;8.88;;
49548;SDS011;35450;44.518;7.466;2023-06-10T09:18:07;11.35;;;10.15;;
49548;SDS011;35450;44.518;7.466;2023-06-10T09:21:12;13.63;;;9.15;;
49548;SDS011;35450;44.518;7.466;2023-06-10T09:24:16;14.23;;;9.63;;
49548;SDS011;35450;44.518;7.466;2023-06-10T09:27:21;9.45;;;7.10;;
49548;SDS011;35450;44.518;7.466;2023-06-10T09:30:26;13.70;;;7.78;;
49548;SDS011;35450;44.518;7.466;2023-06-10T09:33:31;8.98;;;6.65;;
49548;SDS011;35450;44.518;7.466;2023-06-10T09:36:36;10.35;;;6.53;;
49548;SDS011;35450;44.518;7.466;2023-06-10T09:39:41;6.18;;;5.03;;
49548;SDS011;35450;44.518;7.466;2023-06-10T09:42:45;9.35;;;5.57;;
49548;SDS011;35450;44.518;7.466;2023-06-10T09:49:01;6.13;;;4.55;;
49548;SDS011;35450;44.518;7.466;2023-06-10T09:52:05;12.20;;;4.30;;
49548;SDS011;35450;44.518;7.466;2023-06-10T09:55:09;7.82;;;4.50;;
49548;SDS011;35450;44.518;7.466;2023-06-10T09:58:14;8.57;;;6.93;;
49548;SDS011;35450;44.518;7.466;2023-06-10T10:01:18;15.02;;;8.25;;
49548;SDS011;35450;44.518;7.466;2023-06-10T10:04:23;6.70;;;5.82;;
49548;SDS011;35450;44.518;7.466;2023-06-10T10:07:28;8.82;;;5.80;;
49548;SDS011;35450;44.518;7.466;2023-06-10T10:10:32;20.42;;;4.90;;
49548;SDS011;35450;44.518;7.466;2023-06-10T10:13:36;10.30;;;5.57;;
49548;SDS011;35450;44.518;7.466;2023-06-10T10:16:42;8.77;;;5.63;;
49548;SDS011;35450;44.518;7.466;2023-06-10T10:19:47;8.32;;;6.20;;
49548;SDS011;35450;44.518;7.466;2023-06-10T10:22:55;9.65;;;7.13;;
49548;SDS011;35450;44.518;7.466;2023-06-10T10:26:02;6.65;;;5.95;;
49548;SDS011;35450;44.518;7.466;2023-06-10T10:29:11;7.05;;;6.30;;
49548;SDS011;35450;44.518;7.466;2023-06-10T10:32:30;6.20;;;5.60;;
49548;SDS011;35450;44.518;7.466;2023-06-10T10:35:38;7.95;;;5.50;;
49548;SDS011;35450;44.518;7.466;2023-06-10T10:38:43;8.40;;;5.22;;
49548;SDS011;35450;44.518;7.466;2023-06-10T10:41:50;6.35;;;5.10;;
49548;SDS011;35450;44.518;7.466;2023-06-10T10:44:55;7.03;;;5.93;;
49548;SDS011;35450;44.518;7.466;2023-06-10T10:48:05;6.25;;;5.07;;
49548;SDS011;35450;44.518;7.466;2023-06-10T10:51:13;6.10;;;4.78;;
49548;SDS011;35450;44.518;7.466;2023-06-10T10:54:18;7.85;;;4.78;;
49548;SDS011;35450;44.518;7.466;2023-06-10T10:57:34;10.60;;;4.95;;
49548;SDS011;35450;44.518;7.466;2023-06-10T11:00:43;9.70;;;5.57;;
49548;SDS011;35450;44.518;7.466;2023-06-10T11:03:48;10.45;;;5.95;;
49548;SDS011;35450;44.518;7.466;2023-06-10T11:06:52;5.30;;;4.80;;
49548;SDS011;35450;44.518;7.466;2023-06-10T11:09:57;7.55;;;5.47;;
49548;SDS011;35450;44.518;7.466;2023-06-10T11:13:10;9.00;;;6.45;;
49548;SDS011;35450;44.518;7.466;2023-06-10T11:16:19;6.60;;;5.28;;
49548;SDS011;35450;44.518;7.466;2023-06-10T11:19:36;5.80;;;5.20;;
49548;SDS011;35450;44.518;7.466;2023-06-10T11:23:00;9.25;;;6.05;;
49548;SDS011;35450;44.518;7.466;2023-06-10T11:29:25;7.28;;;5.22;;
49548;SDS011;35450;44.518;7.466;2023-06-10T11:32:29;8.07;;;4.65;;
49548;SDS011;35450;44.518;7.466;2023-06-10T11:35:35;5.45;;;4.07;;
49548;SDS011;35450;44.518;7.466;2023-06-10T11:38:40;4.22;;;3.83;;
49548;SDS011;35450;44.518;7.466;2023-06-10T11:41:45;7.63;;;4.00;;
49548;SDS011;35450;44.518;7.466;2023-06-10T11:44:52;5.65;;;4.60;;
49548;SDS011;35450;44.518;7.466;2023-06-10T11:47:58;10.73;;;5.60;;
49548;SDS011;35450;44.518;7.466;2023-06-10T11:51:06;6.80;;;5.50;;
49548;SDS011;35450;44.518;7.466;2023-06-10T11:54:11;7.75;;;4.63;;
49548;SDS011;35450;44.518;7.466;2023-06-10T11:57:15;6.45;;;4.53;;
49548;SDS011;35450;44.518;7.466;2023-06-10T12:00:19;5.03;;;4.53;;
49548;SDS011;35450;44.518;7.466;2023-06-10T12:03:23;5.15;;;3.78;;
49548;SDS011;35450;44.518;7.466;2023-06-10T12:06:37;5.28;;;4.72;;
49548;SDS011;35450;44.518;7.466;2023-06-10T12:10:00;13.73;;;6.57;;
49548;SDS011;35450;44.518;7.466;2023-06-10T12:13:04;6.88;;;6.20;;
49548;SDS011;35450;44.518;7.466;2023-06-10T12:16:08;8.00;;;6.28;;
49548;SDS011;35450;44.518;7.466;2023-06-10T12:19:13;9.00;;;5.53;;
49548;SDS011;35450;44.518;7.466;2023-06-10T12:22:17;9.05;;;7.85;;
49548;SDS011;35450;44.518;7.466;2023-06-10T12:25:26;9.82;;;8.52;;
49548;SDS011;35450;44.518;7.466;2023-06-10T12:28:31;11.13;;;8.45;;
49548;SDS011;35450;44.518;7.466;2023-06-10T12:31:51;10.23;;;8.57;;
49548;SDS011;35450;44.518;7.466;2023-06-10T12:35:02;10.45;;;8.48;;
49548;SDS011;35450;44.518;7.466;2023-06-10T12:38:09;12.00;;;8.70;;
49548;SDS011;35450;44.518;7.466;2023-06-10T12:41:15;12.10;;;8.98;;
49548;SDS011;35450;44.518;7.466;2023-06-10T12:44:28;12.10;;;8.90;;
49548;SDS011;35450;44.518;7.466;2023-06-10T12:48:07;14.07;;;9.45;;
49548;SDS011;35450;44.518;7.466;2023-06-10T12:51:12;12.65;;;9.43;;
49548;SDS011;35450;44.518;7.466;2023-06-10T12:54:16;9.15;;;8.18;;
49548;SDS011;35450;44.518;7.466;2023-06-10T12:57:23;12.43;;;9.27;;
49548;SDS011;35450;44.518;7.466;2023-06-10T13:00:27;10.88;;;8.63;;
49548;SDS011;35450;44.518;7.466;2023-06-10T13:03:34;18.10;;;10.25;;
49548;SDS011;35450;44.518;7.466;2023-06-10T13:06:38;11.75;;;9.32;;
49548;SDS011;35450;44.518;7.466;2023-06-10T13:09:43;11.10;;;9.45;;
49548;SDS011;35450;44.518;7.466;2023-06-10T13:12:48;10.75;;;8.80;;
49548;SDS011;35450;44.518;7.466;2023-06-10T13:15:52;12.95;;;8.90;;
49548;SDS011;35450;44.518;7.466;2023-06-10T13:18:56;11.85;;;9.00;;
49548;SDS011;35450;44.518;7.466;2023-06-10T13:22:00;10.52;;;9.43;;
49548;SDS011;35450;44.518;7.466;2023-06-10T13:25:04;14.60;;;8.98;;
49548;SDS011;35450;44.518;7.466;2023-06-10T13:28:12;8.95;;;7.93;;
49548;SDS011;35450;44.518;7.466;2023-06-10T13:31:16;8.82;;;7.60;;
49548;SDS011;35450;44.518;7.466;2023-06-10T13:34:20;9.77;;;7.30;;
49548;SDS011;35450;44.518;7.466;2023-06-10T13:37:24;7.38;;;6.50;;
49548;SDS011;35450;44.518;7.466;2023-06-10T13:40:28;9.15;;;6.95;;
49548;SDS011;35450;44.518;7.466;2023-06-10T13:43:33;7.93;;;5.93;;
49548;SDS011;35450;44.518;7.466;2023-06-10T13:46:37;7.75;;;6.43;;
49548;SDS011;35450;44.518;7.466;2023-06-10T13:49:41;9.52;;;5.72;;
49548;SDS011;35450;44.518;7.466;2023-06-10T13:52:45;10.80;;;5.85;;
49548;SDS011;35450;44.518;7.466;2023-06-10T13:55:48;9.98;;;5.80;;
49548;SDS011;35450;44.518;7.466;2023-06-10T13:58:53;8.05;;;6.28;;
49548;SDS011;35450;44.518;7.466;2023-06-10T14:01:56;6.40;;;5.65;;
49548;SDS011;35450;44.518;7.466;2023-06-10T14:05:02;9.38;;;6.38;;
49548;SDS011;35450;44.518;7.466;2023-06-10T14:08:07;8.25;;;5.80;;
49548;SDS011;35450;44.518;7.466;2023-06-10T14:11:10;8.25;;;5.43;;
49548;SDS011;35450;44.518;7.466;2023-06-10T14:14:15;8.80;;;5.18;;
49548;SDS011;35450;44.518;7.466;2023-06-10T14:17:18;6.75;;;5.25;;
49548;SDS011;35450;44.518;7.466;2023-06-10T14:20:22;8.00;;;5.45;;
49548;SDS011;35450;44.518;7.466;2023-06-10T14:23:29;9.68;;;5.53;;
49548;SDS011;35450;44.518;7.466;2023-06-10T14:26:33;7.68;;;5.05;;
49548;SDS011;35450;44.518;7.466;2023-06-10T14:29:37;7.78;;;4.57;;
49548;SDS011;35450;44.518;7.466;2023-06-10T14:32:41;8.40;;;4.97;;
49548;SDS011;35450;44.518;7.466;2023-06-10T14:35:45;6.80;;;5.63;;
49548;SDS011;35450;44.518;7.466;2023-06-10T14:38:50;7.38;;;4.28;;
49548;SDS011;35450;44.518;7.466;2023-06-10T14:41:54;4.10;;;3.70;;
49548;SDS011;35450;44.518;7.466;2023-06-10T14:44:58;5.90;;;4.70;;
49548;SDS011;35450;44.518;7.466;2023-06-10T14:48:03;8.52;;;5.18;;
49548;SDS011;35450;44.518;7.466;2023-06-10T14:51:07;6.05;;;3.92;;
49548;SDS011;35450;44.518;7.466;2023-06-10T14:54:12;4.78;;;3.65;;
49548;SDS011;35450;44.518;7.466;2023-06-10T14:57:16;4.88;;;3.63;;
49548;SDS011;35450;44.518;7.466;2023-06-10T15:00:20;6.65;;;4.20;;
49548;SDS011;35450;44.518;7.466;2023-06-10T15:03:26;4.15;;;3.75;;
49548;SDS011;35450;44.518;7.466;2023-06-10T15:06:30;4.00;;;3.65;;
49548;SDS011;35450;44.518;7.466;2023-06-10T15:09:34;6.00;;;4.43;;
49548;SDS011;35450;44.518;7.466;2023-06-10T15:12:38;5.10;;;3.63;;
49548;SDS011;35450;44.518;7.466;2023-06-10T15:15:42;6.07;;;3.83;;
49548;SDS011;35450;44.518;7.466;2023-06-10T15:18:46;7.85;;;4.45;;
49548;SDS011;35450;44.518;7.466;2023-06-10T15:21:50;8.48;;;4.55;;
49548;SDS011;35450;44.518;7.466;2023-06-10T15:24:54;4.13;;;3.53;;
49548;SDS011;35450;44.518;7.466;2023-06-10T15:27:58;7.85;;;4.68;;
49548;SDS011;35450;44.518;7.466;2023-06-10T15:31:02;5.28;;;4.07;;
49548;SDS011;35450;44.518;7.466;2023-06-10T15:34:06;7.20;;;4.43;;
49548;SDS011;35450;44.518;7.466;2023-06-10T15:37:11;9.93;;;3.83;;
49548;SDS011;35450;44.518;7.466;2023-06-10T15:40:15;5.15;;;4.00;;
49548;SDS011;35450;44.518;7.466;2023-06-10T15:43:19;8.93;;;4.25;;
49548;SDS011;35450;44.518;7.466;2023-06-10T15:46:24;7.75;;;4.20;;
49548;SDS011;35450;44.518;7.466;2023-06-10T15:49:28;7.90;;;4.75;;
49548;SDS011;35450;44.518;7.466;2023-06-10T15:52:32;5.57;;;4.40;;
49548;SDS011;35450;44.518;7.466;2023-06-10T15:55:36;4.95;;;4.40;;
49548;SDS011;35450;44.518;7.466;2023-06-10T15:58:40;5.85;;;4.57;;
49548;SDS011;35450;44.518;7.466;2023-06-10T16:01:44;5.60;;;4.40;;
49548;SDS011;35450;44.518;7.466;2023-06-10T16:04:48;5.13;;;4.32;;
49548;SDS011;35450;44.518;7.466;2023-06-10T16:07:52;5.97;;;4.68;;
49548;SDS011;35450;44.518;7.466;2023-06-10T16:10:55;10.25;;;5.25;;
49548;SDS011;35450;44.518;7.466;2023-06-10T16:14:00;4.88;;;4.28;;
49548;SDS011;35450;44.518;7.466;2023-06-10T16:17:04;8.13;;;4.45;;
49548;SDS011;35450;44.518;7.466;2023-06-10T16:20:08;7.13;;;5.18;;
49548;SDS011;35450;44.518;7.466;2023-06-10T16:23:12;6.18;;;5.57;;
49548;SDS011;35450;44.518;7.466;2023-06-10T16:26:16;8.73;;;5.20;;
49548;SDS011;35450;44.518;7.466;2023-06-10T16:29:20;6.47;;;5.55;;
49548;SDS011;35450;44.518;7.466;2023-06-10T16:32:24;6.35;;;4.82;;
49548;SDS011;35450;44.518;7.466;2023-06-10T16:35:28;6.18;;;5.35;;
49548;SDS011;35450;44.518;7.466;2023-06-10T16:38:32;5.75;;;5.10;;
49548;SDS011;35450;44.518;7.466;2023-06-10T16:41:37;7.15;;;5.75;;
49548;SDS011;35450;44.518;7.466;2023-06-10T16:44:40;7.30;;;5.05;;
49548;SDS011;35450;44.518;7.466;2023-06-10T16:47:44;5.43;;;4.20;;
49548;SDS011;35450;44.518;7.466;2023-06-10T16:50:48;6.50;;;3.95;;
49548;SDS011;35450;44.518;7.466;2023-06-10T16:53:52;9.23;;;4.43;;
49548;SDS011;35450;44.518;7.466;2023-06-10T16:56:56;7.78;;;4.00;;
49548;SDS011;35450;44.518;7.466;2023-06-10T17:00:00;5.35;;;3.92;;
49548;SDS011;35450;44.518;7.466;2023-06-10T17:03:04;4.25;;;3.85;;
49548;SDS011;35450;44.518;7.466;2023-06-10T17:06:08;5.35;;;3.85;;
49548;SDS011;35450;44.518;7.466;2023-06-10T17:09:12;5.43;;;3.72;;
49548;SDS011;35450;44.518;7.466;2023-06-10T17:12:16;8.65;;;4.38;;
49548;SDS011;35450;44.518;7.466;2023-06-10T17:15:20;5.50;;;3.58;;
49548;SDS011;35450;44.518;7.466;2023-06-10T17:18:24;7.35;;;3.47;;
49548;SDS011;35450;44.518;7.466;2023-06-10T17:21:28;3.20;;;2.78;;
49548;SDS011;35450;44.518;7.466;2023-06-10T17:24:32;6.80;;;3.17;;
49548;SDS011;35450;44.518;7.466;2023-06-10T17:27:36;5.40;;;2.65;;
49548;SDS011;35450;44.518;7.466;2023-06-10T17:30:40;3.25;;;2.40;;
49548;SDS011;35450;44.518;7.466;2023-06-10T17:33:44;6.32;;;3.05;;
49548;SDS011;35450;44.518;7.466;2023-06-10T17:36:47;7.70;;;2.97;;
49548;SDS011;35450;44.518;7.466;2023-06-10T17:39:51;4.97;;;3.05;;
49548;SDS011;35450;44.518;7.466;2023-06-10T17:42:55;6.38;;;2.85;;
49548;SDS011;35450;44.518;7.466;2023-06-10T17:45:59;5.45;;;2.45;;
49548;SDS011;35450;44.518;7.466;2023-06-10T17:49:03;6.63;;;2.45;;
49548;SDS011;35450;44.518;7.466;2023-06-10T17:52:07;5.10;;;2.13;;
49548;SDS011;35450;44.518;7.466;2023-06-10T17:55:11;8.07;;;2.53;;
49548;SDS011;35450;44.518;7.466;2023-06-10T17:58:15;8.85;;;2.25;;
49548;SDS011;35450;44.518;7.466;2023-06-10T18:01:19;5.82;;;1.88;;
49548;SDS011;35450;44.518;7.466;2023-06-10T18:04:23;6.32;;;1.90;;
49548;SDS011;35450;44.518;7.466;2023-06-10T18:07:27;3.63;;;2.42;;
49548;SDS011;35450;44.518;7.466;2023-06-10T18:10:31;10.77;;;2.35;;
49548;SDS011;35450;44.518;7.466;2023-06-10T18:13:35;6.78;;;2.80;;
49548;SDS011;35450;44.518;7.466;2023-06-10T18:16:39;3.47;;;2.80;;
49548;SDS011;35450;44.518;7.466;2023-06-10T18:19:43;4.78;;;3.20;;
49548;SDS011;35450;44.518;7.466;2023-06-10T18:22:46;6.25;;;3.00;;
49548;SDS011;35450;44.518;7.466;2023-06-10T18:25:50;4.90;;;3.60;;
49548;SDS011;35450;44.518;7.466;2023-06-10T18:28:55;5.80;;;3.42;;
49548;SDS011;35450;44.518;7.466;2023-06-10T18:31:59;3.88;;;3.10;;